createdAt,value
2018-11-05T00:02:03.348Z,13.67
2018-11-05T00:04:32.266Z,13.56
2018-11-05T00:07:01.177Z,13.34
2018-11-05T00:09:30.125Z,13.19
2018-11-05T00:11:59.116Z,12.92
2018-11-05T00:14:28.045Z,13.00
2018-11-05T00:16:56.899Z,12.84
2018-11-05T00:19:25.830Z,12.52
2018-11-05T00:21:54.770Z,12.57
2018-11-05T00:24:23.669Z,12.59
2018-11-05T00:26:52.749Z,12.64
2018-11-05T00:29:21.707Z,12.48
2018-11-05T00:31:50.624Z,12.48
2018-11-05T00:34:19.668Z,12.38
2018-11-05T00:36:48.653Z,12.26
2018-11-05T00:39:17.641Z,12.16
2018-11-05T00:41:46.765Z,11.96
2018-11-05T00:44:16.714Z,12.02
2018-11-05T00:46:45.603Z,12.26
2018-11-05T00:49:14.519Z,12.03
2018-11-05T00:51:43.420Z,11.93
2018-11-05T00:54:12.417Z,11.73
2018-11-05T00:56:41.371Z,11.67
2018-11-05T00:59:10.263Z,11.57
2018-11-05T01:01:39.158Z,11.66
2018-11-05T01:04:08.059Z,11.48
2018-11-05T01:06:37.002Z,11.26
2018-11-05T01:09:07.316Z,11.46
2018-11-05T01:11:36.180Z,11.35
2018-11-05T01:14:05.093Z,11.18
2018-11-05T01:16:34.075Z,11.08
2018-11-05T01:19:02.996Z,11.35
2018-11-05T01:21:32.000Z,11.24
2018-11-05T01:24:00.905Z,11.20
2018-11-05T01:26:29.734Z,11.16
2018-11-05T01:28:58.632Z,10.91
2018-11-05T01:31:27.684Z,10.68
2018-11-05T01:33:56.768Z,10.59
2018-11-05T01:36:25.684Z,10.83
2018-11-05T01:38:54.680Z,10.66
2018-11-05T01:41:23.561Z,10.75
2018-11-05T01:43:52.568Z,10.71
2018-11-05T01:46:21.440Z,10.55
2018-11-05T01:48:50.433Z,10.54
2018-11-05T01:51:19.340Z,10.43
2018-11-05T01:53:48.270Z,10.43
2018-11-05T01:56:17.171Z,10.26
2018-11-05T01:58:46.025Z,10.07
2018-11-05T02:01:15.071Z,10.35
2018-11-05T02:03:43.945Z,10.39
2018-11-05T02:06:12.801Z,10.13
2018-11-05T02:08:41.732Z,10.33
2018-11-05T02:11:10.657Z,10.12
2018-11-05T02:13:39.548Z,10.14
2018-11-05T02:16:08.554Z,10.27
2018-11-05T02:18:37.559Z,10.43
2018-11-05T02:21:06.708Z,10.32
2018-11-05T02:23:35.670Z,10.06
2018-11-05T02:26:04.570Z,10.17
2018-11-05T02:28:33.502Z,10.30
2018-11-05T02:31:02.469Z,10.42
2018-11-05T02:33:31.359Z,10.03
2018-11-05T02:36:00.293Z,10.22
2018-11-05T02:38:29.176Z,10.10
2018-11-05T02:40:58.050Z,9.93
2018-11-05T02:43:27.059Z,10.25
2018-11-05T02:45:56.020Z,10.23
2018-11-05T02:48:24.955Z,10.34
2018-11-05T02:50:53.906Z,10.47
2018-11-05T02:53:22.978Z,10.68
2018-11-05T02:55:51.845Z,10.89
2018-11-05T02:58:20.801Z,11.12
2018-11-05T03:00:49.701Z,11.35
2018-11-05T03:03:18.673Z,11.38
2018-11-05T03:05:47.528Z,11.31
2018-11-05T03:08:16.472Z,11.47
2018-11-05T03:10:45.372Z,11.65
2018-11-05T03:13:14.363Z,11.59
2018-11-05T03:15:43.303Z,11.60
2018-11-05T03:18:12.167Z,11.74
2018-11-05T03:20:41.108Z,11.61
2018-11-05T03:23:10.048Z,11.24
2018-11-05T03:25:38.957Z,11.48
2018-11-05T03:28:07.882Z,11.40
2018-11-05T03:30:36.849Z,11.29
2018-11-05T03:33:06.361Z,10.78
2018-11-05T03:35:35.314Z,10.63
2018-11-05T03:38:04.292Z,10.75
2018-11-05T03:40:33.199Z,10.48
2018-11-05T03:43:02.125Z,10.47
2018-11-05T03:45:30.941Z,10.31
2018-11-05T03:47:59.776Z,10.30
2018-11-05T03:50:28.698Z,10.29
2018-11-05T03:52:57.724Z,10.33
2018-11-05T03:55:26.672Z,10.36
2018-11-05T03:57:55.594Z,9.80
2018-11-05T04:00:24.637Z,9.89
2018-11-05T04:02:53.528Z,9.86
2018-11-05T04:05:22.444Z,9.40
2018-11-05T04:07:51.462Z,10.65
2018-11-05T04:10:20.341Z,11.46
2018-11-05T04:12:49.206Z,11.61
2018-11-05T04:15:18.182Z,11.53
2018-11-05T04:17:47.132Z,11.23
2018-11-05T04:20:16.038Z,11.11
2018-11-05T04:22:45.503Z,11.06
2018-11-05T04:25:14.456Z,10.95
2018-11-05T04:27:43.536Z,10.82
2018-11-05T04:30:14.986Z,10.70
2018-11-05T04:32:44.187Z,10.51
2018-11-05T04:35:13.557Z,10.18
2018-11-05T04:37:42.432Z,10.27
2018-11-05T04:40:12.041Z,9.99
2018-11-05T04:42:41.090Z,10.12
2018-11-05T04:45:11.684Z,10.20
2018-11-05T04:47:40.948Z,10.08
2018-11-05T04:50:11.117Z,10.17
2018-11-05T04:52:40.888Z,9.86
2018-11-05T04:55:09.787Z,9.90
2018-11-05T04:57:38.791Z,9.73
2018-11-05T05:00:10.185Z,9.57
2018-11-05T05:02:40.324Z,9.56
2018-11-05T05:05:09.912Z,9.76
2018-11-05T05:07:40.191Z,9.56
2018-11-05T05:10:09.939Z,9.74
2018-11-05T05:12:40.138Z,9.75
2018-11-05T05:15:09.606Z,9.82
2018-11-05T05:17:38.958Z,9.31
2018-11-05T05:20:10.253Z,9.23
2018-11-05T05:22:39.453Z,9.22
2018-11-05T05:25:08.161Z,9.14
2018-11-05T05:27:37.055Z,9.30
2018-11-05T05:30:11.895Z,9.48
2018-11-05T05:32:40.801Z,9.49
2018-11-05T05:35:09.962Z,9.78
2018-11-05T05:37:39.000Z,9.67
2018-11-05T05:40:08.312Z,9.77
2018-11-05T05:42:37.531Z,9.72
2018-11-05T05:45:07.593Z,9.73
2018-11-05T05:47:36.556Z,9.72
2018-11-05T05:50:07.792Z,9.89
2018-11-05T05:52:36.648Z,9.85
2018-11-05T05:55:06.657Z,9.85
2018-11-05T05:57:35.550Z,9.95
2018-11-05T06:00:05.119Z,10.14
2018-11-05T06:02:34.046Z,10.37
2018-11-05T06:05:02.915Z,10.24
2018-11-05T06:07:31.827Z,10.28
2018-11-05T06:10:00.756Z,10.47
2018-11-05T06:12:29.782Z,10.32
2018-11-05T06:14:58.829Z,10.01
2018-11-05T06:17:27.696Z,10.10
2018-11-05T06:19:56.706Z,10.06
2018-11-05T06:22:25.638Z,10.22
2018-11-05T06:24:54.602Z,10.23
2018-11-05T06:27:23.682Z,10.14
2018-11-05T06:29:52.595Z,10.32
2018-11-05T06:32:21.525Z,10.47
2018-11-05T06:34:50.370Z,10.38
2018-11-05T06:37:19.414Z,10.43
2018-11-05T06:39:48.340Z,10.65
2018-11-05T06:42:17.357Z,10.75
2018-11-05T06:44:46.303Z,10.86
2018-11-05T06:47:15.134Z,11.09
2018-11-05T06:49:43.983Z,11.08
2018-11-05T06:52:12.854Z,11.29
2018-11-05T06:54:41.853Z,11.52
2018-11-05T06:57:10.841Z,11.58
2018-11-05T06:59:39.830Z,11.76
2018-11-05T07:02:08.876Z,11.93
2018-11-05T07:04:37.928Z,12.02
2018-11-05T07:07:07.241Z,11.99
2018-11-05T07:09:36.485Z,12.13
2018-11-05T07:12:05.573Z,12.14
2018-11-05T07:14:34.613Z,12.43
2018-11-05T07:17:03.849Z,12.15
2018-11-05T07:19:32.959Z,12.07
2018-11-05T07:22:01.877Z,11.97
2018-11-05T07:24:30.890Z,12.24
2018-11-05T07:26:59.794Z,12.26
2018-11-05T07:29:28.761Z,12.43
2018-11-05T07:31:57.709Z,12.56
2018-11-05T07:34:33.215Z,12.75
2018-11-05T07:37:02.009Z,12.87
2018-11-05T07:39:31.132Z,12.82
2018-11-05T07:42:00.031Z,12.85
2018-11-05T07:44:28.932Z,12.83
2018-11-05T07:46:57.910Z,12.89
2018-11-05T07:49:26.897Z,12.80
2018-11-05T07:51:55.786Z,12.72
2018-11-05T07:54:24.744Z,12.66
2018-11-05T07:56:53.731Z,12.76
2018-11-05T07:59:22.532Z,12.57
2018-11-05T08:01:51.406Z,12.45
2018-11-05T08:04:20.540Z,12.43
2018-11-05T08:06:49.483Z,12.50
2018-11-05T08:09:18.395Z,12.73
2018-11-05T08:11:47.377Z,12.99
2018-11-05T08:14:16.685Z,13.21
2018-11-05T08:16:45.627Z,13.01
2018-11-05T08:19:14.859Z,13.21
2018-11-05T08:21:43.713Z,13.43
2018-11-05T08:24:12.629Z,13.53
2018-11-05T08:26:41.491Z,13.44
2018-11-05T08:29:10.538Z,13.54
2018-11-05T08:31:39.678Z,13.73
2018-11-05T08:34:08.602Z,13.84
2018-11-05T08:36:37.410Z,13.96
2018-11-05T08:39:10.391Z,13.96
2018-11-05T08:41:39.278Z,13.61
2018-11-05T08:44:09.341Z,13.94
2018-11-05T08:46:38.467Z,14.09
2018-11-05T08:49:07.543Z,14.26
2018-11-05T08:51:36.711Z,14.33
2018-11-05T08:54:05.513Z,14.48
2018-11-05T08:56:34.421Z,14.61
2018-11-05T08:59:03.287Z,14.58
2018-11-05T09:01:34.153Z,14.15
2018-11-05T09:04:03.390Z,14.36
2018-11-05T09:06:32.430Z,14.45
2018-11-05T09:09:01.317Z,14.71
2018-11-05T09:11:30.328Z,14.25
2018-11-05T09:13:59.114Z,14.12
2018-11-05T09:16:28.952Z,14.42
2018-11-05T09:18:58.081Z,14.41
2018-11-05T09:21:26.966Z,14.54
2018-11-05T09:23:55.965Z,14.64
2018-11-05T09:26:25.111Z,14.81
2018-11-05T09:28:54.030Z,14.94
2018-11-05T09:31:23.012Z,14.91
2018-11-05T09:33:52.000Z,14.88
2018-11-05T09:36:20.946Z,14.52
2018-11-05T09:38:50.003Z,14.79
2018-11-05T09:41:19.162Z,14.90
2018-11-05T09:43:48.036Z,14.96
2018-11-05T09:46:17.070Z,15.16
2018-11-05T09:48:45.953Z,15.35
2018-11-05T09:51:14.839Z,15.50
2018-11-05T09:53:43.722Z,15.37
2018-11-05T09:56:12.712Z,15.37
2018-11-05T09:58:41.739Z,15.01
2018-11-05T10:01:10.664Z,14.88
2018-11-05T10:03:44.804Z,14.92
2018-11-05T10:06:13.618Z,14.86
2018-11-05T10:08:42.742Z,15.03
2018-11-05T10:11:11.642Z,15.34
2018-11-05T10:13:40.750Z,15.48
2018-11-05T10:16:09.791Z,15.51
2018-11-05T10:18:38.662Z,15.58
2018-11-05T10:21:07.654Z,15.61
2018-11-05T10:23:36.689Z,15.81
2018-11-05T10:26:05.907Z,15.95
2018-11-05T10:28:34.829Z,15.77
2018-11-05T10:31:03.701Z,15.99
2018-11-05T10:33:32.637Z,15.96
2018-11-05T10:36:01.588Z,16.04
2018-11-05T10:38:30.534Z,16.16
2018-11-05T10:40:59.475Z,16.06
2018-11-05T10:43:28.411Z,15.96
2018-11-05T10:45:57.327Z,16.02
2018-11-05T10:48:26.302Z,16.10
2018-11-05T10:50:55.211Z,16.19
2018-11-05T10:53:24.127Z,16.34
2018-11-05T10:55:53.098Z,16.44
2018-11-05T10:58:22.151Z,16.40
2018-11-05T11:00:56.180Z,16.51
2018-11-05T11:03:29.121Z,16.63
2018-11-05T11:05:58.094Z,16.71
2018-11-05T11:08:27.082Z,16.51
2018-11-05T11:10:56.100Z,16.58
2018-11-05T11:13:24.970Z,16.75
2018-11-05T11:15:53.900Z,16.80
2018-11-05T11:18:22.859Z,16.65
2018-11-05T11:20:51.848Z,16.73
2018-11-05T11:23:20.757Z,16.75
2018-11-05T11:25:49.697Z,16.80
2018-11-05T11:28:18.603Z,16.85
2018-11-05T11:30:47.516Z,16.76
2018-11-05T11:33:16.579Z,16.79
2018-11-05T11:35:45.507Z,16.96
2018-11-05T11:38:14.465Z,17.09
2018-11-05T11:40:43.631Z,17.09
2018-11-05T11:43:12.665Z,17.08
2018-11-05T11:45:41.624Z,17.07
2018-11-05T11:48:10.605Z,17.15
2018-11-05T11:50:39.693Z,17.13
2018-11-05T11:53:08.681Z,17.20
2018-11-05T11:55:37.538Z,17.28
2018-11-05T11:58:06.607Z,17.13
2018-11-05T12:00:35.644Z,17.27
2018-11-05T12:03:04.800Z,17.33
2018-11-05T12:05:33.635Z,17.33
2018-11-05T12:08:02.499Z,17.26
2018-11-05T12:10:31.524Z,17.31
2018-11-05T12:13:00.641Z,17.29
2018-11-05T12:15:29.609Z,17.31
2018-11-05T12:17:58.469Z,17.36
2018-11-05T12:20:27.476Z,17.33
2018-11-05T12:22:56.292Z,17.36
2018-11-05T12:25:25.182Z,17.28
2018-11-05T12:27:54.083Z,17.28
2018-11-05T12:30:24.077Z,17.27
2018-11-05T12:32:54.224Z,17.38
2018-11-05T12:35:23.171Z,17.37
2018-11-05T12:37:53.054Z,17.36
2018-11-05T12:40:22.803Z,17.33
2018-11-05T12:42:52.176Z,17.31
2018-11-05T12:45:21.077Z,17.35
2018-11-05T12:47:49.972Z,17.38
2018-11-05T12:50:20.722Z,17.58
2018-11-05T12:52:50.498Z,17.54
2018-11-05T12:55:19.488Z,17.69
2018-11-05T12:57:48.806Z,17.58
2018-11-05T13:00:23.567Z,17.51
2018-11-05T13:03:00.580Z,17.50
2018-11-05T13:05:30.720Z,17.59
2018-11-05T13:07:59.574Z,17.61
2018-11-05T13:10:28.552Z,17.52
2018-11-05T13:12:57.446Z,17.72
2018-11-05T13:15:26.573Z,17.74
2018-11-05T13:18:01.478Z,17.79
2018-11-05T13:20:30.347Z,17.89
2018-11-05T13:22:59.262Z,17.85
2018-11-05T13:25:28.303Z,17.89
2018-11-05T13:27:57.356Z,17.75
2018-11-05T13:30:26.427Z,17.93
2018-11-05T13:32:55.413Z,18.01
2018-11-05T13:35:24.272Z,18.06
2018-11-05T13:37:53.560Z,18.21
2018-11-05T13:40:23.292Z,18.27
2018-11-05T13:42:52.719Z,18.24
2018-11-05T13:45:22.499Z,18.17
2018-11-05T13:47:51.544Z,18.07
2018-11-05T13:50:19.975Z,17.86
2018-11-05T13:52:48.743Z,17.87
2018-11-05T13:55:18.037Z,17.98
2018-11-05T13:57:48.307Z,18.04
2018-11-05T14:00:18.486Z,18.16
2018-11-05T14:02:47.421Z,18.16
2018-11-05T14:05:16.472Z,18.13
2018-11-05T14:07:45.548Z,17.92
2018-11-05T14:10:16.792Z,17.87
2018-11-05T14:12:46.332Z,18.07
2018-11-05T14:15:15.245Z,18.05
2018-11-05T14:17:44.733Z,17.97
2018-11-05T14:20:14.625Z,18.06
2018-11-05T14:22:43.803Z,18.01
2018-11-05T14:25:14.117Z,18.00
2018-11-05T14:27:44.161Z,17.90
2018-11-05T14:30:13.733Z,17.94
2018-11-05T14:32:43.967Z,18.00
2018-11-05T14:35:12.905Z,17.88
2018-11-05T14:37:41.763Z,17.96
2018-11-05T14:40:12.509Z,17.96
2018-11-05T14:42:41.567Z,17.95
2018-11-05T14:45:12.482Z,17.89
2018-11-05T14:47:42.614Z,17.74
2018-11-05T14:50:13.473Z,17.85
2018-11-05T14:52:42.388Z,17.88
2018-11-05T14:55:13.800Z,17.84
2018-11-05T14:57:43.294Z,17.87
2018-11-05T15:00:14.469Z,17.86
2018-11-05T15:02:44.074Z,17.77
2018-11-05T15:05:13.851Z,17.75
2018-11-05T15:07:43.808Z,17.63
2018-11-05T15:10:14.897Z,17.64
2018-11-05T15:12:44.198Z,17.57
2018-11-05T15:15:13.903Z,17.42
2018-11-05T15:17:43.425Z,17.36
2018-11-05T15:20:15.857Z,17.45
2018-11-05T15:22:44.637Z,17.35
2018-11-05T15:25:14.116Z,17.37
2018-11-05T15:27:43.140Z,17.45
2018-11-05T15:30:15.376Z,17.51
2018-11-05T15:32:44.517Z,17.53
2018-11-05T15:35:13.364Z,17.59
2018-11-05T15:37:42.849Z,17.63
2018-11-05T15:40:13.822Z,17.68
2018-11-05T15:42:42.711Z,17.68
2018-11-05T15:45:13.763Z,17.67
2018-11-05T15:47:43.118Z,17.60
2018-11-05T15:50:15.686Z,17.56
2018-11-05T15:52:44.877Z,17.52
2018-11-05T15:55:13.651Z,17.45
2018-11-05T15:57:42.544Z,17.36
2018-11-05T16:00:18.319Z,17.25
2018-11-05T16:02:49.349Z,17.24
2018-11-05T16:05:18.542Z,17.28
2018-11-05T16:07:47.508Z,17.16
2018-11-05T16:10:16.665Z,17.08
2018-11-05T16:12:45.802Z,17.02
2018-11-05T16:15:14.889Z,17.12
2018-11-05T16:17:43.849Z,17.23
2018-11-05T16:20:15.593Z,17.16
2018-11-05T16:22:45.158Z,16.89
2018-11-05T16:25:14.123Z,17.03
2018-11-05T16:27:43.641Z,16.99
2018-11-05T16:30:14.455Z,16.93
2018-11-05T16:32:43.988Z,16.89
2018-11-05T16:35:13.155Z,16.88
2018-11-05T16:37:42.162Z,16.89
2018-11-05T16:40:13.540Z,16.77
2018-11-05T16:42:43.060Z,16.60
2018-11-05T16:45:12.274Z,16.36
2018-11-05T16:47:41.799Z,16.55
2018-11-05T16:50:12.884Z,16.62
2018-11-05T16:52:42.008Z,16.44
2018-11-05T16:55:12.665Z,16.29
2018-11-05T16:57:42.120Z,16.14
2018-11-05T17:00:11.476Z,16.25
2018-11-05T17:02:40.585Z,16.30
2018-11-05T17:05:09.444Z,16.10
2018-11-05T17:07:38.623Z,16.20
2018-11-05T17:10:08.884Z,16.20
2018-11-05T17:12:37.835Z,15.98
2018-11-05T17:15:08.539Z,16.07
2018-11-05T17:17:37.742Z,15.96
2018-11-05T17:20:08.783Z,15.91
2018-11-05T17:22:37.694Z,15.94
2018-11-05T17:25:07.489Z,15.88
2018-11-05T17:27:36.543Z,15.88
2018-11-05T17:30:06.559Z,15.74
2018-11-05T17:32:35.524Z,15.59
2018-11-05T17:35:04.730Z,15.58
2018-11-05T17:37:33.644Z,15.63
2018-11-05T17:40:02.593Z,15.49
2018-11-05T17:42:32.425Z,15.42
2018-11-05T17:45:03.114Z,15.48
2018-11-05T17:47:40.227Z,15.26
2018-11-05T17:50:12.516Z,15.29
2018-11-05T17:52:41.686Z,15.07
2018-11-05T17:55:11.637Z,15.22
2018-11-05T17:57:41.265Z,15.18
2018-11-05T18:00:13.065Z,15.22
2018-11-05T18:02:41.997Z,15.20
2018-11-05T18:05:10.939Z,15.23
2018-11-05T18:07:39.840Z,15.13
2018-11-05T18:10:09.065Z,15.04
2018-11-05T18:12:37.992Z,15.01
2018-11-05T18:15:09.331Z,15.14
2018-11-05T18:17:38.942Z,15.09
2018-11-05T18:20:09.112Z,15.12
2018-11-05T18:22:38.108Z,15.10
2018-11-05T18:25:08.544Z,15.00
2018-11-05T18:27:37.500Z,15.07
2018-11-05T18:30:06.894Z,15.07
2018-11-05T18:32:35.845Z,15.00
2018-11-05T18:35:04.891Z,15.01
2018-11-05T18:37:34.910Z,14.96
2018-11-05T18:40:04.113Z,14.96
2018-11-05T18:42:33.161Z,14.78
2018-11-05T18:45:02.151Z,14.78
2018-11-05T18:47:31.118Z,14.70
2018-11-05T18:50:00.094Z,14.76
2018-11-05T18:52:29.077Z,14.67
2018-11-05T18:54:57.976Z,14.56
2018-11-05T18:57:27.061Z,14.65
2018-11-05T18:59:57.589Z,14.77
2018-11-05T19:02:31.482Z,14.85
2018-11-05T19:05:00.446Z,14.84
2018-11-05T19:07:29.522Z,14.84
2018-11-05T19:10:00.593Z,14.91
2018-11-05T19:12:29.780Z,14.93
2018-11-05T19:14:58.785Z,15.01
2018-11-05T19:17:27.708Z,14.89
2018-11-05T19:19:56.837Z,14.92
2018-11-05T19:22:25.762Z,14.87
2018-11-05T19:24:54.606Z,14.76
2018-11-05T19:27:23.504Z,14.77
2018-11-05T19:29:52.375Z,14.58
2018-11-05T19:32:21.285Z,14.34
2018-11-05T19:34:50.305Z,14.30
2018-11-05T19:37:19.235Z,14.15
2018-11-05T19:39:48.169Z,14.16
2018-11-05T19:42:17.243Z,13.91
2018-11-05T19:44:46.201Z,13.69
2018-11-05T19:47:15.169Z,13.64
2018-11-05T19:49:44.076Z,13.58
2018-11-05T19:52:13.004Z,13.67
2018-11-05T19:54:41.846Z,13.49
2018-11-05T19:57:10.873Z,13.69
2018-11-05T19:59:39.896Z,13.94
2018-11-05T20:02:09.182Z,13.93
2018-11-05T20:04:38.192Z,13.94
2018-11-05T20:07:07.108Z,13.85
2018-11-05T20:09:36.092Z,13.80
2018-11-05T20:12:05.224Z,13.71
2018-11-05T20:14:34.153Z,13.85
2018-11-05T20:17:03.187Z,13.16
2018-11-05T20:19:32.074Z,13.36
2018-11-05T20:22:01.053Z,13.45
2018-11-05T20:24:29.987Z,13.23
2018-11-05T20:26:58.933Z,13.37
2018-11-05T20:29:27.838Z,13.51
2018-11-05T20:31:57.065Z,13.56
2018-11-05T20:34:25.999Z,13.40
2018-11-05T20:36:54.894Z,13.53
2018-11-05T20:39:23.888Z,13.34
2018-11-05T20:41:52.989Z,13.56
2018-11-05T20:44:21.944Z,13.66
2018-11-05T20:46:51.270Z,13.44
2018-11-05T20:49:20.241Z,13.57
2018-11-05T20:51:49.127Z,13.71
2018-11-05T20:54:18.089Z,13.76
2018-11-05T20:56:47.350Z,13.78
2018-11-05T20:59:16.289Z,13.77
2018-11-05T21:01:45.256Z,13.76
2018-11-05T21:04:14.497Z,13.64
2018-11-05T21:06:43.886Z,13.78
2018-11-05T21:09:13.279Z,13.87
2018-11-05T21:11:42.208Z,13.78
2018-11-05T21:14:11.167Z,13.76
2018-11-05T21:16:40.303Z,13.61
2018-11-05T21:19:09.240Z,13.68
2018-11-05T21:21:39.015Z,13.69
2018-11-05T21:24:08.321Z,13.65
2018-11-05T21:26:37.377Z,13.56
2018-11-05T21:29:06.324Z,13.41
2018-11-05T21:31:35.841Z,13.47
2018-11-05T21:34:04.961Z,13.43
2018-11-05T21:36:34.015Z,13.15
2018-11-05T21:39:03.723Z,13.29
2018-11-05T21:41:32.836Z,13.21
2018-11-05T21:44:02.510Z,13.24
2018-11-05T21:46:31.578Z,13.13
2018-11-05T21:49:00.533Z,13.10
2018-11-05T21:51:30.134Z,12.93
2018-11-05T21:53:59.209Z,12.75
2018-11-05T21:56:28.152Z,12.64
2018-11-05T21:58:57.138Z,12.80
2018-11-05T22:01:27.355Z,12.83
2018-11-05T22:03:56.804Z,12.82
2018-11-05T22:06:26.185Z,13.02
2018-11-05T22:08:55.417Z,13.11
2018-11-05T22:11:24.487Z,13.22
2018-11-05T22:13:53.490Z,13.20
2018-11-05T22:16:25.474Z,13.11
2018-11-05T22:18:55.257Z,13.03
2018-11-05T22:21:24.191Z,12.78
2018-11-05T22:23:53.190Z,12.75
2018-11-05T22:26:22.147Z,12.70
2018-11-05T22:28:51.070Z,12.64
2018-11-05T22:31:20.184Z,12.51
2018-11-05T22:33:49.077Z,12.41
2018-11-05T22:36:19.466Z,12.02
2018-11-05T22:38:48.358Z,11.89
2018-11-05T22:41:17.882Z,12.00
2018-11-05T22:43:46.731Z,12.07
2018-11-05T22:46:15.929Z,11.92
2018-11-05T22:48:44.927Z,11.96
2018-11-05T22:51:14.005Z,11.89
2018-11-05T22:53:43.094Z,11.75
2018-11-05T22:56:12.046Z,11.70
2018-11-05T22:58:40.995Z,11.40
2018-11-05T23:01:14.059Z,11.19
2018-11-05T23:03:43.027Z,11.25
2018-11-05T23:06:11.880Z,11.28
2018-11-05T23:08:40.988Z,11.21
2018-11-05T23:11:10.581Z,11.06
2018-11-05T23:13:39.713Z,11.05
2018-11-05T23:16:09.071Z,11.12
2018-11-05T23:18:38.705Z,11.19
2018-11-05T23:21:07.918Z,11.12
2018-11-05T23:23:36.931Z,10.88
2018-11-05T23:26:06.266Z,10.96
2018-11-05T23:28:35.280Z,10.77
2018-11-05T23:31:04.221Z,10.76
2018-11-05T23:33:33.240Z,10.67
2018-11-05T23:36:02.565Z,10.70
2018-11-05T23:38:31.518Z,10.60
2018-11-05T23:41:00.672Z,10.54
2018-11-05T23:43:29.511Z,10.54
2018-11-05T23:45:58.401Z,10.54
2018-11-05T23:48:27.429Z,10.64
2018-11-05T23:50:56.395Z,10.58
2018-11-05T23:53:25.411Z,10.71
2018-11-05T23:55:54.318Z,10.51
2018-11-05T23:58:23.706Z,10.31
